CW9533 Torre Faro Messina IT current weather conditions

sailwx.info

Wind from 063 at 3 knots gusting 11

Air temperature 18.3° C
Dewpoint 8.9° C

Last reported at 2014-Oct-31 10:41 UTC.
Time now 2014-Oct-31 11:25 UTC

Location: N 38°16' E 015°39'.
View on Google Maps.

See reports from other nearby stations

  
Tides and Currents Weather Stations Pressure Air Temp Water Temp Dewpoint Dewpoint Depression Visibility Wind Speed Wind Dir Waves Ship Positions
date/time (UTC)wind fromknots sea level pressurealtimeterstation pressurevisibilityair tempwater tempwave heightnotes
2014-Oct-31 10:41 063 3 gusting 11 18.3
2014-Oct-31 10:26 063 5 gusting 8 17.8
2014-Oct-31 10:11 061 5 gusting 9 17.8
2014-Oct-31 09:56 051 3 gusting 8 17.8
2014-Oct-31 09:41 047 3 gusting 8 17.8
2014-Oct-31 09:26 044 2 gusting 6 17.8
2014-Oct-31 09:11 042 3 gusting 7 17.2
2014-Oct-31 08:56 042 3 gusting 7 17.2
2014-Oct-31 08:41 041 3 gusting 6 16.7
2014-Oct-31 08:26 040 3 gusting 7 16.7
2014-Oct-31 08:11 019 2 gusting 6 16.7
2014-Oct-31 07:56 355 0 gusting 6 16.1
2014-Oct-31 07:40 355 1 gusting 4 16.1
2014-Oct-31 07:25 355 15.6
2014-Oct-31 07:10 355 15.6
2014-Oct-31 06:55 355 0 gusting 2 15.0
2014-Oct-31 06:40 355 0 gusting 2 14.4
2014-Oct-31 06:25 355 13.9
2014-Oct-31 06:10 355 1 gusting 3 13.9
2014-Oct-31 05:55 355 13.9
2014-Oct-31 05:40 355 13.9
2014-Oct-31 05:25 355 1 gusting 3 13.3
2014-Oct-31 05:10 355 1 gusting 2 13.3
2014-Oct-31 04:55 355 0 gusting 2 13.3
2014-Oct-31 04:40 355 0 gusting 2 12.8
2014-Oct-31 04:25 355 1 gusting 3 12.8
2014-Oct-31 04:10 355 0 gusting 3 12.8
2014-Oct-31 03:55 355 12.8
2014-Oct-31 03:40 355 3 gusting 6 12.8
2014-Oct-31 03:25 355 2 gusting 4 12.8
2014-Oct-31 03:10 355 3 gusting 5 12.8
2014-Oct-31 02:55 355 2 gusting 4 12.8
2014-Oct-31 02:40 355 1 gusting 3 12.8
2014-Oct-31 02:25 355 1 gusting 4 12.8
2014-Oct-31 02:10 355 12.8
2014-Oct-31 01:55 355 4 gusting 6 12.8
2014-Oct-31 01:40 355 3 gusting 7 12.8
2014-Oct-31 01:25 355 2 gusting 7 12.8
2014-Oct-31 01:10 355 3 gusting 6 12.8
2014-Oct-31 00:55 360 4 gusting 7 12.8
2014-Oct-31 00:40 009 3 gusting 5 12.8
2014-Oct-31 00:25 013 3 gusting 7 12.8
2014-Oct-31 00:11 019 4 gusting 6 12.8
2014-Oct-30 23:55 027 12.8
2014-Oct-30 23:40 027 12.8
2014-Oct-30 23:25 027 6 gusting 9 12.8
2014-Oct-30 23:10 046 6 gusting 14 13.3
2014-Oct-30 22:55 047 9 gusting 19 15.0
2014-Oct-30 22:40 360 1 gusting 4 15.0
2014-Oct-30 22:25 360 1 gusting 5 15.6
2014-Oct-30 22:10 360 16.1
2014-Oct-30 21:55 360 0 gusting 4 16.7
2014-Oct-30 21:39 360 0 gusting 2 16.7
2014-Oct-30 21:24 360 16.7
2014-Oct-30 21:09 360 1 gusting 7 16.7
2014-Oct-30 20:54 005 3 gusting 5 16.1
2014-Oct-30 20:39 005 2 gusting 5 16.1
2014-Oct-30 20:24 005 2 gusting 5 16.1
2014-Oct-30 20:09 005 2 gusting 4 16.7
2014-Oct-30 19:54 005 0 gusting 2 16.7
2014-Oct-30 19:39 005 16.7
2014-Oct-30 19:24 005 0 gusting 4 16.7
2014-Oct-30 19:09 005 1 gusting 4 16.7
2014-Oct-30 18:54 005 2 gusting 4 17.2
2014-Oct-30 18:39 005 1 gusting 3 17.8
2014-Oct-30 18:24 005 17.8
2014-Oct-30 18:09 005 17.8
2014-Oct-30 17:54 005 17.8
2014-Oct-30 17:39 009 0 gusting 3 17.8
2014-Oct-30 17:24 009 18.3
2014-Oct-30 17:09 009 18.3
2014-Oct-30 16:54 009 18.3
2014-Oct-30 16:39 009 18.3
2014-Oct-30 16:24 009 18.3
2014-Oct-30 16:09 009 2 gusting 6 18.3
2014-Oct-30 15:54 009 0 gusting 5 18.9
2014-Oct-30 15:39 009 0 gusting 7 18.9
2014-Oct-30 15:24 009 3 gusting 9 18.9
2014-Oct-30 15:09 009 2 gusting 6 19.4
2014-Oct-30 14:54 005 19.4
2014-Oct-30 14:39 005 4 gusting 6 19.4
2014-Oct-30 14:24 005 1 gusting 7 19.4
2014-Oct-30 14:09 005 4 gusting 9 19.4
2014-Oct-30 13:54 009 2 gusting 6 18.9
2014-Oct-30 13:39 005 1 gusting 7 18.9
2014-Oct-30 13:24 360 2 gusting 7 18.9
2014-Oct-30 13:09 360 4 gusting 11 19.4
2014-Oct-30 12:54 017 6 gusting 12 20.0
2014-Oct-30 12:39 011 4 gusting 9 20.0
2014-Oct-30 12:24 051 2 gusting 9 20.0
2014-Oct-30 12:09 056 2 gusting 6 20.0
2014-Oct-30 11:54 056 3 gusting 7 20.0
2014-Oct-30 11:39 056 2 gusting 7 20.0
2014-Oct-30 11:24 056 5 gusting 9 19.4
2014-Oct-30 11:09 069 5 gusting 10 19.4
2014-Oct-30 10:54 063 5 gusting 10 19.4
2014-Oct-30 10:39 065 5 gusting 10 19.4
2014-Oct-30 10:24 062 4 gusting 10 19.4
2014-Oct-30 10:09 055 5 gusting 11 19.4
2014-Oct-30 09:54 038 2 gusting 11 19.4
2014-Oct-30 09:39 024 2 gusting 6 19.4
2014-Oct-30 09:24 015 3 gusting 7 18.9
2014-Oct-30 09:09 005 1 gusting 7 18.9
2014-Oct-30 08:54 321 0 gusting 7 18.9
2014-Oct-30 08:39 307 18.3
2014-Oct-30 08:24 307 17.8
2014-Oct-30 08:09 307 17.8
2014-Oct-30 07:54 307 17.8
2014-Oct-30 07:39 302 2 gusting 5 17.8
2014-Oct-30 07:24 302 0 gusting 2 17.2
2014-Oct-30 07:09 302 16.7
2014-Oct-30 06:53 302 0 gusting 2 15.6
2014-Oct-30 06:38 302 15.0
2014-Oct-30 06:23 302 14.4
2014-Oct-30 06:08 301 1 gusting 4 14.4
2014-Oct-30 05:53 300 0 gusting 2 14.4
2014-Oct-30 05:38 301 13.9
2014-Oct-30 05:23 301 0 gusting 2 13.9
2014-Oct-30 05:08 301 14.4
2014-Oct-30 04:53 301 1 gusting 4 13.9
2014-Oct-30 04:38 301 0 gusting 2 13.9
2014-Oct-30 04:23 301 1 gusting 4 13.9
2014-Oct-30 04:08 301 1 gusting 4 13.9
2014-Oct-30 03:53 301 4 gusting 8 13.9
2014-Oct-30 03:38 301 5 gusting 10 13.9
2014-Oct-30 03:23 295 4 gusting 6 14.4
2014-Oct-30 03:08 296 5 gusting 7 15.0
2014-Oct-30 02:53 296 3 gusting 6 15.6
2014-Oct-30 02:38 296 1 gusting 4 15.0
2014-Oct-30 02:23 296 1 gusting 3 15.0
2014-Oct-30 02:08 296 3 gusting 5 15.0
2014-Oct-30 01:53 296 2 gusting 4 15.0
2014-Oct-30 01:38 296 2 gusting 3 15.6
2014-Oct-30 01:23 296 1 gusting 3 15.6
2014-Oct-30 01:08 296 0 gusting 3 15.0
2014-Oct-30 00:53 296 2 gusting 5 15.0
2014-Oct-30 00:38 296 0 gusting 2 15.6
2014-Oct-30 00:23 296 1 gusting 3 15.6
2014-Oct-30 00:08 296 2 gusting 4 15.6
2014-Oct-29 23:53 296 15.6
2014-Oct-29 23:38 296 3 gusting 5 15.0
2014-Oct-29 23:23 296 3 gusting 5 15.6
2014-Oct-29 23:08 296 3 gusting 6 15.6
2014-Oct-29 22:53 296 3 gusting 5 15.6
2014-Oct-29 22:38 296 1 gusting 4 15.6
2014-Oct-29 22:23 296 2 gusting 5 15.6
2014-Oct-29 22:08 296 1 gusting 5 15.6
2014-Oct-29 21:53 296 2 gusting 5 15.6
2014-Oct-29 21:38 296 3 gusting 5 15.6
2014-Oct-29 21:23 296 3 gusting 5 15.6
2014-Oct-29 21:08 296 0 gusting 2 16.1
2014-Oct-29 20:53 296 2 gusting 4 16.1
2014-Oct-29 20:38 296 0 gusting 4 16.1
2014-Oct-29 20:23 296 2 gusting 5 16.1
2014-Oct-29 20:08 296 2 gusting 4 16.1
2014-Oct-29 19:53 296 1 gusting 4 16.1
2014-Oct-29 19:38 296 1 gusting 4 16.1
2014-Oct-29 19:23 296 1 gusting 2 16.1
2014-Oct-29 19:08 296 1 gusting 3 16.7
2014-Oct-29 18:53 296 0 gusting 3 16.7
2014-Oct-29 18:38 296 1 gusting 5 16.7
2014-Oct-29 18:23 296 0 gusting 3 16.7
2014-Oct-29 18:08 296 0 gusting 4 16.7
2014-Oct-29 17:53 296 1 gusting 5 16.7
2014-Oct-29 17:38 296 1 gusting 5 16.7
2014-Oct-29 17:23 296 2 gusting 4 17.2
2014-Oct-29 17:08 296 0 gusting 4 17.2
2014-Oct-29 16:53 296 0 gusting 5 17.2
2014-Oct-29 16:38 296 1 gusting 4 17.2
2014-Oct-29 16:23 296 17.2
2014-Oct-29 16:08 296 1 gusting 4 17.2
2014-Oct-29 15:53 296 1 gusting 6 17.2
2014-Oct-29 15:38 296 3 gusting 7 17.8
2014-Oct-29 15:23 296 3 gusting 8 17.8
2014-Oct-29 15:08 296 4 gusting 7 17.8
2014-Oct-29 14:53 296 5 gusting 8 17.8
2014-Oct-29 14:38 296 4 gusting 9 17.2
2014-Oct-29 14:23 296 5 gusting 15 17.2
2014-Oct-29 14:08 296 8 gusting 17 17.8
2014-Oct-29 13:53 296 9 gusting 17 18.3
2014-Oct-29 13:38 296 6 gusting 9 18.9
2014-Oct-29 13:23 296 3 gusting 8 18.9
2014-Oct-29 13:07 296 5 gusting 11 18.3
2014-Oct-29 12:52 296 6 gusting 12 18.3
2014-Oct-29 12:37 296 5 gusting 12 18.9
2014-Oct-29 12:22 296 5 gusting 12 18.9
2014-Oct-29 12:07 296 6 gusting 13 18.9
2014-Oct-29 11:52 296 5 gusting 13 18.9
2014-Oct-29 11:37 296 5 gusting 13 18.9
2014-Oct-29 11:22 296 6 gusting 13 19.4
2014-Oct-29 11:07 296 7 gusting 16 19.4